createdAt,value
2023-02-09T04:20:55.787Z,12.85
2023-02-09T04:23:24.377Z,16.00
2023-02-09T04:25:52.559Z,13.77
2023-02-09T04:28:20.794Z,12.25
2023-02-09T04:30:53.846Z,10.50
2023-02-09T04:33:22.223Z,12.23
2023-02-09T04:35:51.865Z,11.65
2023-02-09T04:38:21.982Z,10.52
2023-02-09T04:40:51.090Z,10.38
2023-02-09T04:43:19.676Z,11.18
2023-02-09T04:45:48.166Z,12.20
2023-02-09T04:48:18.424Z,12.25
2023-02-09T04:50:47.217Z,11.70
2023-02-09T04:53:17.665Z,14.52
2023-02-09T04:55:46.737Z,11.63
2023-02-09T04:58:33.702Z,11.73
2023-02-09T05:01:02.646Z,12.38
2023-02-09T05:03:31.208Z,11.63
2023-02-09T05:06:00.979Z,11.32
2023-02-09T05:08:31.064Z,10.55
2023-02-09T05:10:59.815Z,11.43
2023-02-09T05:13:28.195Z,11.00
2023-02-09T05:15:56.873Z,11.05
2023-02-09T05:18:25.730Z,10.65
2023-02-09T05:20:54.177Z,11.27
2023-02-09T05:23:22.424Z,10.50
2023-02-09T05:25:52.045Z,11.60
2023-02-09T05:28:20.304Z,10.68
2023-02-09T05:30:53.656Z,11.82
2023-02-09T05:33:22.841Z,12.30
2023-02-09T05:35:52.583Z,11.57
2023-02-09T05:38:21.352Z,13.27
2023-02-09T05:40:51.321Z,13.10
2023-02-09T05:43:19.800Z,13.68
2023-02-09T05:45:48.245Z,12.55
2023-02-09T05:48:16.537Z,13.88
2023-02-09T05:50:45.080Z,11.88
2023-02-09T05:53:15.201Z,12.85
2023-02-09T05:55:44.074Z,12.38
2023-02-09T05:58:13.945Z,13.60
2023-02-09T06:00:42.291Z,10.50
2023-02-09T06:03:10.675Z,12.07
2023-02-09T06:05:39.003Z,13.13
2023-02-09T06:08:07.372Z,13.10
2023-02-09T06:10:35.713Z,12.38
2023-02-09T06:13:04.342Z,14.40
2023-02-09T06:15:34.246Z,13.50
2023-02-09T06:18:02.684Z,13.02
2023-02-09T06:20:31.056Z,11.68
2023-02-09T06:22:59.253Z,14.25
2023-02-09T06:25:31.075Z,12.50
2023-02-09T06:28:13.740Z,14.18
2023-02-09T06:30:43.562Z,13.18
2023-02-09T06:33:11.783Z,13.80
2023-02-09T06:35:40.110Z,15.05
2023-02-09T06:38:08.275Z,14.00
2023-02-09T06:40:36.543Z,13.32
2023-02-09T06:43:04.771Z,14.43
2023-02-09T06:45:33.018Z,13.15
2023-02-09T06:48:02.632Z,13.70
2023-02-09T06:50:30.914Z,13.25
2023-02-09T06:52:59.462Z,14.18
2023-02-09T06:55:27.736Z,13.40
2023-02-09T06:57:56.252Z,12.68
2023-02-09T07:00:25.113Z,13.10
2023-02-09T07:02:53.656Z,13.48
2023-02-09T07:05:23.280Z,13.35
2023-02-09T07:07:51.499Z,12.32
2023-02-09T07:10:20.372Z,13.13
2023-02-09T07:12:48.637Z,12.45
2023-02-09T07:15:16.944Z,13.02
2023-02-09T07:17:45.403Z,13.63
2023-02-09T07:20:14.406Z,13.73
2023-02-09T07:22:44.748Z,13.27
2023-02-09T07:25:12.964Z,13.00
2023-02-09T07:27:45.429Z,13.85
2023-02-09T07:30:14.650Z,13.80
2023-02-09T07:32:43.378Z,14.32
2023-02-09T07:35:11.813Z,16.02
2023-02-09T07:37:55.225Z,13.38
2023-02-09T07:40:23.513Z,14.93
2023-02-09T07:42:52.712Z,14.93
2023-02-09T07:45:20.940Z,14.55
2023-02-09T07:47:49.155Z,14.32
2023-02-09T07:50:19.271Z,15.23
2023-02-09T07:52:49.661Z,15.25
2023-02-09T07:55:17.909Z,15.55
2023-02-09T07:57:48.746Z,15.13
2023-02-09T08:00:17.970Z,13.68
2023-02-09T08:02:46.843Z,14.55
2023-02-09T08:05:19.511Z,15.20
2023-02-09T08:07:51.225Z,15.13
2023-02-09T08:10:20.015Z,14.00
2023-02-09T08:13:03.899Z,16.33
2023-02-09T08:15:37.232Z,13.60
2023-02-09T08:18:10.204Z,15.18
2023-02-09T08:20:40.234Z,13.80
2023-02-09T08:23:13.843Z,13.15
2023-02-09T08:25:42.164Z,13.68
2023-02-09T08:28:10.509Z,14.52
2023-02-09T08:30:38.743Z,15.18
2023-02-09T08:33:06.895Z,13.68
2023-02-09T08:35:35.116Z,15.65
2023-02-09T08:38:04.354Z,14.98
2023-02-09T08:40:36.429Z,14.95
2023-02-09T08:43:04.636Z,12.40
2023-02-09T08:45:32.917Z,14.27
2023-02-09T08:48:01.204Z,13.40
2023-02-09T08:50:29.446Z,14.05
2023-02-09T08:52:58.056Z,13.85
2023-02-09T08:55:26.386Z,15.18
2023-02-09T08:57:56.313Z,14.75
2023-02-09T09:00:24.741Z,15.10
2023-02-09T09:02:52.954Z,14.63
2023-02-09T09:05:21.140Z,14.40
2023-02-09T09:07:49.435Z,14.77
2023-02-09T09:10:17.842Z,14.43
2023-02-09T09:12:46.424Z,14.93
2023-02-09T09:15:16.029Z,14.85
2023-02-09T09:17:44.416Z,14.75
2023-02-09T09:20:12.960Z,15.63
2023-02-09T09:22:41.277Z,14.05
2023-02-09T09:25:09.828Z,14.25
2023-02-09T09:27:41.342Z,14.52
2023-02-09T09:30:10.448Z,13.55
2023-02-09T09:32:40.321Z,14.20
2023-02-09T09:35:08.965Z,15.07
2023-02-09T09:37:37.182Z,15.48
2023-02-09T09:40:05.664Z,13.38
2023-02-09T09:42:37.885Z,13.55
2023-02-09T09:45:07.028Z,14.45
2023-02-09T09:47:39.817Z,14.25
2023-02-09T09:50:14.197Z,15.20
2023-02-09T09:52:44.824Z,14.95
2023-02-09T09:55:21.483Z,14.13
2023-02-09T09:57:50.108Z,16.08
2023-02-09T10:00:21.141Z,13.73
2023-02-09T10:02:51.027Z,14.82
2023-02-09T10:05:21.415Z,15.27
2023-02-09T10:07:55.057Z,13.90
2023-02-09T10:10:38.020Z,14.05
2023-02-09T10:13:13.429Z,13.65
2023-02-09T10:15:41.914Z,13.65
2023-02-09T10:18:15.517Z,14.77
2023-02-09T10:20:47.307Z,13.88
2023-02-09T10:23:21.528Z,14.00
2023-02-09T10:26:05.104Z,14.15
2023-02-09T10:28:35.391Z,14.77
2023-02-09T10:31:04.853Z,14.02
2023-02-09T10:33:43.467Z,14.65
2023-02-09T10:36:25.980Z,13.90
2023-02-09T10:38:55.393Z,13.65
2023-02-09T10:41:24.126Z,12.80
2023-02-09T10:43:53.301Z,13.85
2023-02-09T10:46:22.064Z,14.23
2023-02-09T10:48:55.949Z,14.85
2023-02-09T10:51:29.444Z,12.93
2023-02-09T10:54:04.112Z,15.43
2023-02-09T10:56:37.074Z,14.18
2023-02-09T11:01:36.266Z,11.55
2023-02-09T11:04:07.717Z,11.43
2023-02-09T11:06:47.704Z,10.32
2023-02-09T11:09:17.939Z,11.45
2023-02-09T11:11:46.826Z,12.00
2023-02-09T11:14:18.692Z,12.13
2023-02-09T11:17:05.939Z,11.23
2023-02-09T11:20:01.052Z,11.48
2023-02-09T11:22:47.964Z,12.15
2023-02-09T11:25:21.296Z,11.73
2023-02-09T11:28:00.367Z,10.68
2023-02-09T11:30:39.275Z,12.18
2023-02-09T11:33:13.819Z,10.65
2023-02-09T11:35:49.272Z,10.80
2023-02-09T11:38:20.278Z,11.75
2023-02-09T11:40:51.836Z,11.90
2023-02-09T11:43:22.871Z,11.18
2023-02-09T11:45:52.526Z,10.88
2023-02-09T11:48:26.098Z,9.73
2023-02-09T11:51:01.242Z,10.82
2023-02-09T11:53:35.074Z,11.73
2023-02-09T11:56:05.605Z,11.50
2023-02-09T11:58:53.323Z,10.38
2023-02-09T12:01:29.280Z,9.80
2023-02-09T12:04:04.246Z,10.75
2023-02-09T12:06:37.433Z,11.00
2023-02-09T12:09:13.737Z,11.77
2023-02-09T12:11:48.364Z,11.35
2023-02-09T12:14:32.952Z,11.63
2023-02-09T12:17:06.469Z,10.63
2023-02-09T12:19:37.065Z,10.60
2023-02-09T12:22:42.522Z,10.82
2023-02-09T12:25:22.584Z,10.98
2023-02-09T12:28:14.410Z,12.02
2023-02-09T12:31:06.861Z,9.80
2023-02-09T12:33:36.308Z,11.13
2023-02-09T12:36:07.326Z,10.70
2023-02-09T12:39:07.616Z,11.18
2023-02-09T12:42:26.775Z,11.23
2023-02-09T12:44:57.215Z,11.18
2023-02-09T12:47:47.754Z,9.45
2023-02-09T12:50:25.684Z,11.10
2023-02-09T12:53:30.972Z,10.27
2023-02-09T12:56:00.578Z,10.13
2023-02-09T12:58:53.670Z,10.55
2023-02-09T13:01:22.317Z,10.38
2023-02-09T13:03:57.102Z,10.57
2023-02-09T13:06:30.786Z,10.10
2023-02-09T13:09:00.961Z,10.25
2023-02-09T13:11:38.373Z,10.30
2023-02-09T13:14:10.475Z,9.23
2023-02-09T13:17:08.122Z,9.37
2023-02-09T13:19:56.996Z,11.32
2023-02-09T13:22:33.871Z,12.07
2023-02-09T13:25:10.095Z,10.15
2023-02-09T13:27:46.053Z,9.88
2023-02-09T13:30:22.232Z,8.85
2023-02-09T13:32:57.215Z,10.75
2023-02-09T13:35:30.028Z,10.93
2023-02-09T13:37:59.419Z,9.88
2023-02-09T13:40:29.228Z,9.35
2023-02-09T13:43:01.132Z,10.38
2023-02-09T13:45:31.019Z,10.60
2023-02-09T13:48:00.708Z,11.25
2023-02-09T13:50:29.585Z,10.20
2023-02-09T13:53:09.821Z,10.45
2023-02-09T13:55:40.908Z,10.35
2023-02-09T13:58:10.686Z,10.80
2023-02-09T14:00:42.701Z,10.10
2023-02-09T14:03:19.913Z,10.50
2023-02-09T14:05:52.814Z,9.70
2023-02-09T14:08:22.329Z,10.75
2023-02-09T14:10:54.776Z,10.73
2023-02-09T14:13:25.901Z,10.57
2023-02-09T14:16:10.443Z,10.93
2023-02-09T14:18:56.435Z,10.85
2023-02-09T14:21:27.364Z,10.10
2023-02-09T14:24:15.012Z,10.95
2023-02-09T14:26:49.880Z,10.93
2023-02-09T14:29:21.797Z,10.05
2023-02-09T14:31:52.629Z,10.98
2023-02-09T14:34:26.533Z,10.50
2023-02-09T14:36:56.488Z,11.38
2023-02-09T14:39:24.789Z,10.30
2023-02-09T14:42:14.781Z,11.43
2023-02-09T14:44:47.390Z,11.05
2023-02-09T14:47:40.426Z,10.60
2023-02-09T14:50:11.735Z,11.40
2023-02-09T14:52:40.237Z,11.02
2023-02-09T14:55:12.579Z,12.07
2023-02-09T14:57:40.901Z,10.55
2023-02-09T15:00:17.014Z,13.30
2023-02-09T15:02:47.007Z,11.80
2023-02-09T15:05:15.581Z,11.32
2023-02-09T15:07:47.132Z,11.23
2023-02-09T15:10:21.625Z,10.95
2023-02-09T15:12:49.893Z,11.98
2023-02-09T15:15:20.535Z,11.13
2023-02-09T15:17:50.525Z,11.73
2023-02-09T15:20:21.477Z,11.20
2023-02-09T15:22:49.793Z,10.32
2023-02-09T15:25:18.716Z,11.95
2023-02-09T15:27:51.645Z,12.13
2023-02-09T15:32:50.503Z,11.68
2023-02-09T15:35:20.364Z,11.85
2023-02-09T15:37:51.793Z,12.65
2023-02-09T15:40:43.835Z,12.98
2023-02-09T15:43:31.438Z,13.85
2023-02-09T15:46:17.913Z,13.13
2023-02-09T15:48:47.540Z,12.00
2023-02-09T15:51:16.276Z,11.82
2023-02-09T15:53:44.897Z,13.40
2023-02-09T15:56:15.028Z,12.68
2023-02-09T15:58:45.446Z,12.38
2023-02-09T16:01:17.969Z,12.20
2023-02-09T16:03:48.158Z,13.77
2023-02-09T16:06:19.290Z,14.13
2023-02-09T16:08:48.366Z,13.43
2023-02-09T16:11:20.161Z,13.93
2023-02-09T16:13:48.697Z,13.48
2023-02-09T16:16:17.975Z,12.02
2023-02-09T16:18:48.115Z,12.25
2023-02-09T16:21:23.270Z,14.43
2023-02-09T16:23:52.446Z,13.07
2023-02-09T16:26:21.050Z,14.48
2023-02-09T16:28:49.236Z,13.55
2023-02-09T16:31:17.446Z,14.27
2023-02-09T16:33:47.202Z,12.75
2023-02-09T16:36:17.120Z,13.18
2023-02-09T16:38:45.432Z,14.63
2023-02-09T16:41:29.516Z,13.32
2023-02-09T16:43:57.949Z,14.23
2023-02-09T16:46:26.192Z,14.18
2023-02-09T16:48:55.996Z,13.65
2023-02-09T16:51:24.196Z,13.95
2023-02-09T16:53:53.080Z,13.90
2023-02-09T16:56:21.637Z,14.73
2023-02-09T16:58:50.129Z,17.67
2023-02-09T17:01:20.053Z,25.88
2023-02-09T17:03:50.440Z,28.08
2023-02-09T17:06:21.755Z,33.53
2023-02-09T17:08:56.644Z,26.95
2023-02-09T17:11:29.836Z,26.80
2023-02-09T17:14:00.513Z,22.27
2023-02-09T17:16:32.459Z,20.55
2023-02-09T17:19:15.263Z,17.20
2023-02-09T17:21:47.815Z,18.20
2023-02-09T17:24:18.307Z,19.35
2023-02-09T17:26:53.834Z,19.45
2023-02-09T17:29:33.911Z,16.77
2023-02-09T17:32:05.415Z,18.00
2023-02-09T17:34:34.956Z,16.48
2023-02-09T17:37:11.703Z,15.98
2023-02-09T17:39:39.883Z,16.70
2023-02-09T17:42:10.584Z,15.68
2023-02-09T17:44:45.902Z,15.32
2023-02-09T17:47:17.410Z,14.00
2023-02-09T17:49:46.374Z,16.00
2023-02-09T17:52:23.623Z,13.95
2023-02-09T17:54:52.054Z,14.57
2023-02-09T17:57:21.041Z,17.05
2023-02-09T17:59:50.852Z,19.77
2023-02-09T18:02:22.762Z,20.52
2023-02-09T18:04:51.168Z,19.48
2023-02-09T18:07:21.119Z,21.05
2023-02-09T18:09:49.553Z,20.98
2023-02-09T18:12:21.830Z,23.60
2023-02-09T18:14:51.850Z,16.60
2023-02-09T18:17:20.137Z,23.13
2023-02-09T18:19:48.587Z,22.15
2023-02-09T18:22:18.105Z,32.92
2023-02-09T18:24:47.827Z,27.13
2023-02-09T18:27:18.686Z,44.75
2023-02-09T18:29:46.969Z,78.10
2023-02-09T18:32:17.072Z,27.98
2023-02-09T18:34:45.395Z,26.23
2023-02-09T18:37:15.226Z,22.10
2023-02-09T18:39:46.493Z,25.35
2023-02-09T18:42:17.422Z,20.80
2023-02-09T18:44:45.621Z,26.25
2023-02-09T18:47:14.118Z,32.08
2023-02-09T18:49:43.473Z,31.40
2023-02-09T18:52:17.033Z,26.33
2023-02-09T18:54:48.086Z,22.15
2023-02-09T18:57:18.342Z,20.95
2023-02-09T18:59:47.937Z,18.70
2023-02-09T19:02:23.483Z,21.23
2023-02-09T19:04:51.828Z,22.80
2023-02-09T19:07:19.974Z,23.50
2023-02-09T19:09:48.200Z,23.25
2023-02-09T19:12:17.745Z,23.33
2023-02-09T19:14:47.065Z,21.33
2023-02-09T19:17:17.800Z,16.63
2023-02-09T19:19:46.267Z,20.50
2023-02-09T19:22:16.050Z,17.75
2023-02-09T19:24:44.260Z,16.45
2023-02-09T19:27:12.674Z,18.30
2023-02-09T19:29:42.718Z,19.25
2023-02-09T19:32:11.803Z,18.65
2023-02-09T19:34:42.942Z,18.27
2023-02-09T19:37:12.458Z,55.25
2023-02-09T19:39:41.390Z,26.30
2023-02-09T19:42:09.850Z,18.80
2023-02-09T19:44:38.272Z,17.02
2023-02-09T19:47:08.543Z,32.78
2023-02-09T19:49:36.677Z,19.10
2023-02-09T19:52:05.211Z,18.92
2023-02-09T19:54:33.841Z,19.17
2023-02-09T19:57:04.382Z,22.27
2023-02-09T19:59:32.728Z,27.08
2023-02-09T20:02:01.017Z,24.48
2023-02-09T20:04:30.637Z,23.30
2023-02-09T20:06:58.924Z,22.08
2023-02-09T20:09:27.181Z,21.83
2023-02-09T20:14:23.573Z,21.38
2023-02-09T20:16:53.865Z,20.77
2023-02-09T20:19:23.083Z,22.80
2023-02-09T20:21:52.691Z,20.27
2023-02-09T20:24:20.966Z,21.52
2023-02-09T20:26:49.199Z,22.20
2023-02-09T20:29:19.021Z,25.15
2023-02-09T20:31:47.255Z,21.67
2023-02-09T20:34:16.329Z,20.13
2023-02-09T20:36:48.650Z,20.30
2023-02-09T20:39:18.602Z,21.58
2023-02-09T20:42:01.588Z,22.48
2023-02-09T20:44:47.461Z,21.45
2023-02-09T20:47:15.615Z,25.83
2023-02-09T20:49:43.818Z,21.85
2023-02-09T20:52:12.171Z,22.90
2023-02-09T20:54:42.234Z,22.45
2023-02-09T20:57:10.743Z,22.35
2023-02-09T20:59:39.235Z,20.50
2023-02-09T21:02:07.427Z,20.40
2023-02-09T21:04:35.644Z,19.27
2023-02-09T21:07:04.337Z,18.70
2023-02-09T21:09:32.545Z,21.25
2023-02-09T21:12:02.164Z,20.40
2023-02-09T21:14:41.884Z,20.77
2023-02-09T21:17:11.055Z,19.95
2023-02-09T21:19:39.300Z,24.02
2023-02-09T21:22:07.742Z,21.55
2023-02-09T21:24:35.937Z,20.85
2023-02-09T21:27:06.652Z,22.90
2023-02-09T21:29:35.159Z,24.65
2023-02-09T21:32:04.676Z,23.38
2023-02-09T21:34:33.272Z,21.35
2023-02-09T21:37:01.474Z,24.73
2023-02-09T21:39:30.129Z,21.77
2023-02-09T21:42:15.861Z,21.45
2023-02-09T21:44:45.409Z,23.60
2023-02-09T21:47:13.821Z,23.33
2023-02-09T21:49:41.997Z,22.20
2023-02-09T21:52:10.254Z,21.88
2023-02-09T21:54:38.518Z,21.85
2023-02-09T21:57:06.709Z,22.23
2023-02-09T21:59:35.115Z,21.33
2023-02-09T22:02:04.953Z,21.23
2023-02-09T22:04:33.101Z,21.25
2023-02-09T22:07:01.339Z,22.45
2023-02-09T22:09:29.514Z,20.65
2023-02-09T22:11:57.833Z,22.90
2023-02-09T22:14:25.957Z,23.75
2023-02-09T22:16:54.408Z,25.17
2023-02-09T22:19:24.069Z,25.23
2023-02-09T22:21:52.366Z,24.73
2023-02-09T22:24:21.152Z,23.58
2023-02-09T22:26:49.295Z,23.15
2023-02-09T22:29:18.259Z,22.42
2023-02-09T22:31:46.549Z,21.88
2023-02-09T22:34:14.792Z,24.25
2023-02-09T22:36:44.332Z,21.35
2023-02-09T22:39:12.696Z,21.55
2023-02-09T22:41:42.711Z,21.73
2023-02-09T22:44:13.645Z,22.98
2023-02-09T22:46:43.688Z,24.05
2023-02-09T22:49:15.986Z,24.15
2023-02-09T22:51:46.336Z,24.88
2023-02-09T22:54:15.391Z,23.52
2023-02-09T22:56:43.603Z,28.27
2023-02-09T22:59:13.039Z,29.00
